sensor_id;sensor_type;location;lat;lon;timestamp;P1;durP1;ratioP1;P2;durP2;ratioP2
56130;SDS011;42000;44.774;20.506;2023-02-01T00:00:11;20.08;;;8.70;;
56130;SDS011;42000;44.774;20.506;2023-02-01T00:02:37;16.77;;;8.05;;
56130;SDS011;42000;44.774;20.506;2023-02-01T00:05:06;17.10;;;8.38;;
56130;SDS011;42000;44.774;20.506;2023-02-01T00:07:32;16.23;;;8.70;;
56130;SDS011;42000;44.774;20.506;2023-02-01T00:09:58;16.08;;;8.07;;
56130;SDS011;42000;44.774;20.506;2023-02-01T00:12:24;16.13;;;8.60;;
56130;SDS011;42000;44.774;20.506;2023-02-01T00:14:50;18.25;;;8.30;;
56130;SDS011;42000;44.774;20.506;2023-02-01T00:17:17;16.02;;;8.30;;
56130;SDS011;42000;44.774;20.506;2023-02-01T00:19:43;22.23;;;8.35;;
56130;SDS011;42000;44.774;20.506;2023-02-01T00:22:09;19.25;;;8.95;;
56130;SDS011;42000;44.774;20.506;2023-02-01T00:24:35;17.92;;;8.57;;
56130;SDS011;42000;44.774;20.506;2023-02-01T00:27:01;21.15;;;8.80;;
56130;SDS011;42000;44.774;20.506;2023-02-01T00:29:27;20.48;;;9.63;;
56130;SDS011;42000;44.774;20.506;2023-02-01T00:31:53;21.77;;;9.35;;
56130;SDS011;42000;44.774;20.506;2023-02-01T00:34:19;17.98;;;8.73;;
56130;SDS011;42000;44.774;20.506;2023-02-01T00:36:45;20.20;;;9.32;;
56130;SDS011;42000;44.774;20.506;2023-02-01T00:39:12;20.35;;;9.75;;
56130;SDS011;42000;44.774;20.506;2023-02-01T00:41:38;22.60;;;10.77;;
56130;SDS011;42000;44.774;20.506;2023-02-01T00:44:05;24.80;;;11.90;;
56130;SDS011;42000;44.774;20.506;2023-02-01T00:46:31;30.45;;;13.80;;
56130;SDS011;42000;44.774;20.506;2023-02-01T00:48:57;26.13;;;12.18;;
56130;SDS011;42000;44.774;20.506;2023-02-01T00:51:24;31.38;;;12.75;;
56130;SDS011;42000;44.774;20.506;2023-02-01T00:53:51;24.85;;;11.95;;
56130;SDS011;42000;44.774;20.506;2023-02-01T00:56:17;22.88;;;12.20;;
56130;SDS011;42000;44.774;20.506;2023-02-01T00:58:44;26.15;;;12.15;;
56130;SDS011;42000;44.774;20.506;2023-02-01T01:01:11;21.33;;;11.85;;
56130;SDS011;42000;44.774;20.506;2023-02-01T01:03:41;20.40;;;10.30;;
56130;SDS011;42000;44.774;20.506;2023-02-01T01:06:09;22.00;;;10.02;;
56130;SDS011;42000;44.774;20.506;2023-02-01T01:08:36;23.67;;;9.25;;
56130;SDS011;42000;44.774;20.506;2023-02-01T01:11:08;19.90;;;10.65;;
56130;SDS011;42000;44.774;20.506;2023-02-01T01:13:35;19.00;;;9.55;;
56130;SDS011;42000;44.774;20.506;2023-02-01T01:16:02;22.27;;;9.40;;
56130;SDS011;42000;44.774;20.506;2023-02-01T01:18:28;17.33;;;9.23;;
56130;SDS011;42000;44.774;20.506;2023-02-01T01:20:55;19.33;;;10.20;;
56130;SDS011;42000;44.774;20.506;2023-02-01T01:23:21;23.33;;;11.10;;
56130;SDS011;42000;44.774;20.506;2023-02-01T01:25:47;24.05;;;9.23;;
56130;SDS011;42000;44.774;20.506;2023-02-01T01:28:13;24.05;;;11.13;;
56130;SDS011;42000;44.774;20.506;2023-02-01T01:30:39;24.73;;;11.25;;
56130;SDS011;42000;44.774;20.506;2023-02-01T01:33:05;23.20;;;11.40;;
56130;SDS011;42000;44.774;20.506;2023-02-01T01:35:32;21.90;;;10.90;;
56130;SDS011;42000;44.774;20.506;2023-02-01T01:37:58;24.20;;;11.40;;
56130;SDS011;42000;44.774;20.506;2023-02-01T01:40:24;24.10;;;11.40;;
56130;SDS011;42000;44.774;20.506;2023-02-01T01:42:50;24.38;;;11.48;;
56130;SDS011;42000;44.774;20.506;2023-02-01T01:45:27;22.15;;;11.35;;
56130;SDS011;42000;44.774;20.506;2023-02-01T01:50:54;24.95;;;12.25;;
56130;SDS011;42000;44.774;20.506;2023-02-01T01:53:28;23.85;;;12.75;;
56130;SDS011;42000;44.774;20.506;2023-02-01T01:55:56;29.65;;;14.40;;
56130;SDS011;42000;44.774;20.506;2023-02-01T01:58:23;22.25;;;10.82;;
56130;SDS011;42000;44.774;20.506;2023-02-01T02:00:50;23.50;;;10.55;;
56130;SDS011;42000;44.774;20.506;2023-02-01T02:03:20;21.42;;;11.35;;
56130;SDS011;42000;44.774;20.506;2023-02-01T02:05:50;24.95;;;11.32;;
56130;SDS011;42000;44.774;20.506;2023-02-01T02:08:19;21.70;;;10.57;;
56130;SDS011;42000;44.774;20.506;2023-02-01T02:10:46;21.77;;;9.88;;
56130;SDS011;42000;44.774;20.506;2023-02-01T02:18:39;22.58;;;10.68;;
56130;SDS011;42000;44.774;20.506;2023-02-01T02:21:11;19.63;;;10.50;;
56130;SDS011;42000;44.774;20.506;2023-02-01T02:26:40;24.98;;;10.38;;
56130;SDS011;42000;44.774;20.506;2023-02-01T02:29:21;21.77;;;11.23;;
56130;SDS011;42000;44.774;20.506;2023-02-01T02:34:46;20.42;;;10.45;;
56130;SDS011;42000;44.774;20.506;2023-02-01T02:47:53;20.05;;;9.93;;
56130;SDS011;42000;44.774;20.506;2023-02-01T02:50:26;19.95;;;9.73;;
56130;SDS011;42000;44.774;20.506;2023-02-01T02:53:13;20.13;;;9.52;;
56130;SDS011;42000;44.774;20.506;2023-02-01T02:55:59;19.17;;;9.80;;
56130;SDS011;42000;44.774;20.506;2023-02-01T02:58:44;21.00;;;9.60;;
56130;SDS011;42000;44.774;20.506;2023-02-01T03:01:30;21.25;;;10.25;;
56130;SDS011;42000;44.774;20.506;2023-02-01T03:04:15;19.33;;;10.32;;
56130;SDS011;42000;44.774;20.506;2023-02-01T03:06:43;21.13;;;10.63;;
56130;SDS011;42000;44.774;20.506;2023-02-01T03:09:23;20.38;;;9.55;;
56130;SDS011;42000;44.774;20.506;2023-02-01T03:11:52;21.00;;;10.05;;
56130;SDS011;42000;44.774;20.506;2023-02-01T03:14:42;20.77;;;10.02;;
56130;SDS011;42000;44.774;20.506;2023-02-01T03:17:17;20.75;;;9.85;;
56130;SDS011;42000;44.774;20.506;2023-02-01T03:19:45;29.02;;;12.80;;
56130;SDS011;42000;44.774;20.506;2023-02-01T03:22:15;25.02;;;12.60;;
56130;SDS011;42000;44.774;20.506;2023-02-01T03:24:46;25.80;;;12.38;;
56130;SDS011;42000;44.774;20.506;2023-02-01T03:29:56;26.17;;;11.18;;
56130;SDS011;42000;44.774;20.506;2023-02-01T03:32:24;23.40;;;10.40;;
56130;SDS011;42000;44.774;20.506;2023-02-01T03:34:50;22.25;;;10.65;;
56130;SDS011;42000;44.774;20.506;2023-02-01T03:37:25;21.02;;;10.93;;
56130;SDS011;42000;44.774;20.506;2023-02-01T03:39:57;26.23;;;11.70;;
56130;SDS011;42000;44.774;20.506;2023-02-01T03:42:26;21.38;;;10.38;;
56130;SDS011;42000;44.774;20.506;2023-02-01T03:47:23;19.63;;;9.25;;
56130;SDS011;42000;44.774;20.506;2023-02-01T03:49:54;17.95;;;8.45;;
56130;SDS011;42000;44.774;20.506;2023-02-01T03:52:24;14.02;;;6.40;;
56130;SDS011;42000;44.774;20.506;2023-02-01T03:54:51;22.30;;;9.30;;
56130;SDS011;42000;44.774;20.506;2023-02-01T03:57:19;23.55;;;11.05;;
56130;SDS011;42000;44.774;20.506;2023-02-01T03:59:47;24.55;;;10.55;;
56130;SDS011;42000;44.774;20.506;2023-02-01T04:02:13;25.85;;;11.85;;
56130;SDS011;42000;44.774;20.506;2023-02-01T04:04:39;19.63;;;9.93;;
56130;SDS011;42000;44.774;20.506;2023-02-01T04:07:05;20.23;;;10.35;;
56130;SDS011;42000;44.774;20.506;2023-02-01T04:09:31;22.13;;;10.27;;
56130;SDS011;42000;44.774;20.506;2023-02-01T04:11:57;19.95;;;9.95;;
56130;SDS011;42000;44.774;20.506;2023-02-01T04:14:23;20.77;;;9.75;;
56130;SDS011;42000;44.774;20.506;2023-02-01T04:16:49;19.52;;;9.45;;
56130;SDS011;42000;44.774;20.506;2023-02-01T04:19:16;17.58;;;9.52;;
56130;SDS011;42000;44.774;20.506;2023-02-01T04:21:42;21.77;;;10.80;;
56130;SDS011;42000;44.774;20.506;2023-02-01T04:24:08;30.45;;;11.75;;
56130;SDS011;42000;44.774;20.506;2023-02-01T04:26:34;25.00;;;11.10;;
56130;SDS011;42000;44.774;20.506;2023-02-01T04:29:00;23.58;;;10.18;;
56130;SDS011;42000;44.774;20.506;2023-02-01T04:31:26;20.42;;;9.57;;
56130;SDS011;42000;44.774;20.506;2023-02-01T04:33:52;19.83;;;9.40;;
56130;SDS011;42000;44.774;20.506;2023-02-01T04:36:19;18.67;;;7.90;;
56130;SDS011;42000;44.774;20.506;2023-02-01T04:38:48;16.83;;;7.97;;
56130;SDS011;42000;44.774;20.506;2023-02-01T04:41:14;16.80;;;8.52;;
56130;SDS011;42000;44.774;20.506;2023-02-01T04:43:44;18.42;;;8.20;;
56130;SDS011;42000;44.774;20.506;2023-02-01T04:46:10;16.75;;;7.80;;
56130;SDS011;42000;44.774;20.506;2023-02-01T04:48:36;15.73;;;7.43;;
56130;SDS011;42000;44.774;20.506;2023-02-01T04:51:02;21.98;;;8.25;;
56130;SDS011;42000;44.774;20.506;2023-02-01T04:53:28;18.65;;;7.97;;
56130;SDS011;42000;44.774;20.506;2023-02-01T04:55:54;16.27;;;6.97;;
56130;SDS011;42000;44.774;20.506;2023-02-01T04:58:21;18.90;;;7.30;;
56130;SDS011;42000;44.774;20.506;2023-02-01T05:00:47;18.30;;;7.80;;
56130;SDS011;42000;44.774;20.506;2023-02-01T05:03:13;19.95;;;7.57;;
56130;SDS011;42000;44.774;20.506;2023-02-01T05:05:39;17.70;;;7.60;;
56130;SDS011;42000;44.774;20.506;2023-02-01T05:08:05;16.65;;;7.60;;
56130;SDS011;42000;44.774;20.506;2023-02-01T05:10:31;19.85;;;7.30;;
56130;SDS011;42000;44.774;20.506;2023-02-01T05:12:57;23.77;;;7.85;;
56130;SDS011;42000;44.774;20.506;2023-02-01T05:15:42;14.52;;;7.13;;
56130;SDS011;42000;44.774;20.506;2023-02-01T05:18:08;21.33;;;8.18;;
56130;SDS011;42000;44.774;20.506;2023-02-01T05:20:34;17.83;;;7.65;;
56130;SDS011;42000;44.774;20.506;2023-02-01T05:23:00;12.07;;;5.47;;
56130;SDS011;42000;44.774;20.506;2023-02-01T05:25:26;11.05;;;5.40;;
56130;SDS011;42000;44.774;20.506;2023-02-01T05:27:53;11.85;;;4.80;;
56130;SDS011;42000;44.774;20.506;2023-02-01T05:30:19;12.45;;;4.80;;
56130;SDS011;42000;44.774;20.506;2023-02-01T05:32:45;13.98;;;5.10;;
56130;SDS011;42000;44.774;20.506;2023-02-01T05:35:11;14.43;;;4.57;;
56130;SDS011;42000;44.774;20.506;2023-02-01T05:37:37;7.60;;;3.60;;
56130;SDS011;42000;44.774;20.506;2023-02-01T05:40:03;9.68;;;4.45;;
56130;SDS011;42000;44.774;20.506;2023-02-01T05:42:29;12.35;;;4.57;;
56130;SDS011;42000;44.774;20.506;2023-02-01T05:44:55;12.05;;;4.20;;
56130;SDS011;42000;44.774;20.506;2023-02-01T05:47:21;14.70;;;4.25;;
56130;SDS011;42000;44.774;20.506;2023-02-01T05:49:47;9.10;;;4.07;;
56130;SDS011;42000;44.774;20.506;2023-02-01T05:52:13;16.85;;;4.60;;
56130;SDS011;42000;44.774;20.506;2023-02-01T05:54:44;11.65;;;5.50;;
56130;SDS011;42000;44.774;20.506;2023-02-01T05:57:10;14.10;;;4.80;;
56130;SDS011;42000;44.774;20.506;2023-02-01T05:59:37;8.70;;;4.57;;
56130;SDS011;42000;44.774;20.506;2023-02-01T06:02:06;11.20;;;4.57;;
56130;SDS011;42000;44.774;20.506;2023-02-01T06:04:32;9.43;;;4.82;;
56130;SDS011;42000;44.774;20.506;2023-02-01T06:06:58;14.85;;;4.70;;
56130;SDS011;42000;44.774;20.506;2023-02-01T06:09:24;10.25;;;4.22;;
56130;SDS011;42000;44.774;20.506;2023-02-01T06:11:50;12.95;;;4.57;;
56130;SDS011;42000;44.774;20.506;2023-02-01T06:14:16;23.08;;;9.63;;
56130;SDS011;42000;44.774;20.506;2023-02-01T06:16:42;16.17;;;5.90;;
56130;SDS011;42000;44.774;20.506;2023-02-01T06:19:10;10.15;;;4.53;;
56130;SDS011;42000;44.774;20.506;2023-02-01T06:21:36;13.82;;;4.40;;
56130;SDS011;42000;44.774;20.506;2023-02-01T06:24:02;11.68;;;4.38;;
56130;SDS011;42000;44.774;20.506;2023-02-01T06:26:29;10.98;;;4.00;;
56130;SDS011;42000;44.774;20.506;2023-02-01T06:28:55;9.98;;;4.40;;
56130;SDS011;42000;44.774;20.506;2023-02-01T06:31:21;14.70;;;5.47;;
56130;SDS011;42000;44.774;20.506;2023-02-01T06:33:48;10.80;;;5.60;;
56130;SDS011;42000;44.774;20.506;2023-02-01T06:36:14;12.60;;;5.03;;
56130;SDS011;42000;44.774;20.506;2023-02-01T06:38:41;11.55;;;4.40;;
56130;SDS011;42000;44.774;20.506;2023-02-01T06:41:07;13.25;;;4.40;;
56130;SDS011;42000;44.774;20.506;2023-02-01T06:43:33;11.45;;;5.03;;
56130;SDS011;42000;44.774;20.506;2023-02-01T06:46:04;11.43;;;4.43;;
56130;SDS011;42000;44.774;20.506;2023-02-01T06:48:30;10.32;;;4.28;;
56130;SDS011;42000;44.774;20.506;2023-02-01T06:50:57;11.20;;;4.70;;
56130;SDS011;42000;44.774;20.506;2023-02-01T06:53:23;10.85;;;4.95;;
56130;SDS011;42000;44.774;20.506;2023-02-01T06:55:57;13.55;;;5.43;;
56130;SDS011;42000;44.774;20.506;2023-02-01T06:58:23;14.55;;;5.72;;
56130;SDS011;42000;44.774;20.506;2023-02-01T07:00:49;11.70;;;5.32;;
56130;SDS011;42000;44.774;20.506;2023-02-01T07:03:15;12.10;;;4.88;;
56130;SDS011;42000;44.774;20.506;2023-02-01T07:05:41;13.45;;;5.07;;
56130;SDS011;42000;44.774;20.506;2023-02-01T07:08:07;10.00;;;5.03;;
56130;SDS011;42000;44.774;20.506;2023-02-01T07:10:34;12.13;;;5.55;;
56130;SDS011;42000;44.774;20.506;2023-02-01T07:13:00;10.70;;;5.28;;
56130;SDS011;42000;44.774;20.506;2023-02-01T07:15:26;11.57;;;5.20;;
56130;SDS011;42000;44.774;20.506;2023-02-01T07:17:55;11.35;;;5.43;;
56130;SDS011;42000;44.774;20.506;2023-02-01T07:20:21;13.32;;;5.50;;
56130;SDS011;42000;44.774;20.506;2023-02-01T07:22:48;10.23;;;5.30;;
56130;SDS011;42000;44.774;20.506;2023-02-01T07:25:14;15.90;;;6.30;;
56130;SDS011;42000;44.774;20.506;2023-02-01T07:27:40;15.23;;;7.90;;
56130;SDS011;42000;44.774;20.506;2023-02-01T07:30:06;22.50;;;7.82;;
56130;SDS011;42000;44.774;20.506;2023-02-01T07:32:32;16.75;;;7.35;;
56130;SDS011;42000;44.774;20.506;2023-02-01T07:34:58;22.70;;;7.53;;
56130;SDS011;42000;44.774;20.506;2023-02-01T07:37:24;18.23;;;8.05;;
56130;SDS011;42000;44.774;20.506;2023-02-01T07:39:51;18.13;;;7.82;;
56130;SDS011;42000;44.774;20.506;2023-02-01T07:42:17;19.85;;;9.05;;
56130;SDS011;42000;44.774;20.506;2023-02-01T07:44:43;169.77;;;80.00;;
56130;SDS011;42000;44.774;20.506;2023-02-01T07:47:09;36.75;;;16.88;;
56130;SDS011;42000;44.774;20.506;2023-02-01T07:49:35;38.08;;;20.55;;
56130;SDS011;42000;44.774;20.506;2023-02-01T07:52:01;29.55;;;15.95;;
56130;SDS011;42000;44.774;20.506;2023-02-01T07:54:27;22.35;;;13.23;;
56130;SDS011;42000;44.774;20.506;2023-02-01T07:56:53;27.48;;;10.73;;
56130;SDS011;42000;44.774;20.506;2023-02-01T07:59:19;23.10;;;10.30;;
56130;SDS011;42000;44.774;20.506;2023-02-01T08:01:45;22.10;;;9.98;;
56130;SDS011;42000;44.774;20.506;2023-02-01T08:04:11;22.58;;;10.50;;
56130;SDS011;42000;44.774;20.506;2023-02-01T08:06:38;20.15;;;9.82;;
56130;SDS011;42000;44.774;20.506;2023-02-01T08:09:05;24.83;;;11.25;;
56130;SDS011;42000;44.774;20.506;2023-02-01T08:11:32;33.70;;;18.65;;
56130;SDS011;42000;44.774;20.506;2023-02-01T08:13:59;35.40;;;13.93;;
56130;SDS011;42000;44.774;20.506;2023-02-01T08:16:25;29.02;;;15.75;;
56130;SDS011;42000;44.774;20.506;2023-02-01T08:18:51;23.02;;;12.82;;
56130;SDS011;42000;44.774;20.506;2023-02-01T08:21:25;22.40;;;11.98;;
56130;SDS011;42000;44.774;20.506;2023-02-01T08:24:01;24.77;;;12.52;;
56130;SDS011;42000;44.774;20.506;2023-02-01T08:26:27;21.63;;;10.73;;
56130;SDS011;42000;44.774;20.506;2023-02-01T08:28:54;24.73;;;11.45;;
56130;SDS011;42000;44.774;20.506;2023-02-01T08:31:21;26.50;;;11.93;;
56130;SDS011;42000;44.774;20.506;2023-02-01T08:33:51;22.55;;;10.25;;
56130;SDS011;42000;44.774;20.506;2023-02-01T08:36:18;22.27;;;10.98;;
56130;SDS011;42000;44.774;20.506;2023-02-01T08:38:44;26.90;;;12.07;;
56130;SDS011;42000;44.774;20.506;2023-02-01T08:41:11;26.90;;;12.65;;
56130;SDS011;42000;44.774;20.506;2023-02-01T08:43:38;22.23;;;9.05;;
56130;SDS011;42000;44.774;20.506;2023-02-01T08:46:04;21.73;;;9.07;;
56130;SDS011;42000;44.774;20.506;2023-02-01T08:48:31;21.65;;;8.48;;
56130;SDS011;42000;44.774;20.506;2023-02-01T08:50:57;16.63;;;7.82;;
56130;SDS011;42000;44.774;20.506;2023-02-01T08:53:23;15.38;;;7.35;;
56130;SDS011;42000;44.774;20.506;2023-02-01T08:55:49;18.77;;;7.85;;
56130;SDS011;42000;44.774;20.506;2023-02-01T08:58:15;20.73;;;7.65;;
56130;SDS011;42000;44.774;20.506;2023-02-01T09:00:42;16.55;;;7.55;;
56130;SDS011;42000;44.774;20.506;2023-02-01T09:03:09;15.68;;;7.70;;
56130;SDS011;42000;44.774;20.506;2023-02-01T09:05:36;17.30;;;7.38;;
56130;SDS011;42000;44.774;20.506;2023-02-01T09:08:02;15.90;;;8.10;;
56130;SDS011;42000;44.774;20.506;2023-02-01T09:10:28;17.88;;;7.70;;
56130;SDS011;42000;44.774;20.506;2023-02-01T09:12:54;22.73;;;10.60;;
56130;SDS011;42000;44.774;20.506;2023-02-01T09:15:20;18.02;;;8.65;;
56130;SDS011;42000;44.774;20.506;2023-02-01T09:17:46;16.17;;;8.30;;
56130;SDS011;42000;44.774;20.506;2023-02-01T09:20:12;19.17;;;8.73;;
56130;SDS011;42000;44.774;20.506;2023-02-01T09:22:38;18.15;;;7.95;;
56130;SDS011;42000;44.774;20.506;2023-02-01T09:25:04;15.20;;;7.85;;
56130;SDS011;42000;44.774;20.506;2023-02-01T09:27:30;24.10;;;11.02;;
56130;SDS011;42000;44.774;20.506;2023-02-01T09:29:57;23.20;;;11.48;;
56130;SDS011;42000;44.774;20.506;2023-02-01T09:32:23;20.10;;;10.40;;
56130;SDS011;42000;44.774;20.506;2023-02-01T09:34:50;23.75;;;10.65;;
56130;SDS011;42000;44.774;20.506;2023-02-01T09:37:16;36.92;;;18.63;;
56130;SDS011;42000;44.774;20.506;2023-02-01T09:39:42;28.02;;;14.77;;
56130;SDS011;42000;44.774;20.506;2023-02-01T09:47:20;17.92;;;7.97;;
56130;SDS011;42000;44.774;20.506;2023-02-01T09:52:36;18.42;;;8.68;;
56130;SDS011;42000;44.774;20.506;2023-02-01T09:55:05;19.58;;;8.65;;
56130;SDS011;42000;44.774;20.506;2023-02-01T10:00:04;84.72;;;39.50;;
56130;SDS011;42000;44.774;20.506;2023-02-01T10:02:32;47.53;;;22.00;;
56130;SDS011;42000;44.774;20.506;2023-02-01T10:05:01;43.95;;;20.75;;
56130;SDS011;42000;44.774;20.506;2023-02-01T10:10:09;43.90;;;19.70;;
56130;SDS011;42000;44.774;20.506;2023-02-01T10:18:20;26.67;;;13.70;;
56130;SDS011;42000;44.774;20.506;2023-02-01T10:28:15;16.73;;;8.18;;
56130;SDS011;42000;44.774;20.506;2023-02-01T10:30:43;15.63;;;8.25;;
56130;SDS011;42000;44.774;20.506;2023-02-01T10:36:01;18.83;;;8.32;;
56130;SDS011;42000;44.774;20.506;2023-02-01T10:38:29;19.33;;;8.10;;
56130;SDS011;42000;44.774;20.506;2023-02-01T10:41:02;18.25;;;8.50;;
56130;SDS011;42000;44.774;20.506;2023-02-01T10:43:29;13.32;;;7.63;;
56130;SDS011;42000;44.774;20.506;2023-02-01T10:45:55;16.48;;;7.60;;
56130;SDS011;42000;44.774;20.506;2023-02-01T10:48:22;14.45;;;7.05;;
56130;SDS011;42000;44.774;20.506;2023-02-01T10:51:00;16.25;;;7.53;;
56130;SDS011;42000;44.774;20.506;2023-02-01T10:53:33;15.50;;;7.80;;
56130;SDS011;42000;44.774;20.506;2023-02-01T10:56:08;15.75;;;7.70;;
56130;SDS011;42000;44.774;20.506;2023-02-01T10:58:34;17.85;;;11.15;;
56130;SDS011;42000;44.774;20.506;2023-02-01T11:01:08;21.63;;;11.20;;
56130;SDS011;42000;44.774;20.506;2023-02-01T11:06:03;18.00;;;8.85;;
56130;SDS011;42000;44.774;20.506;2023-02-01T11:08:29;19.15;;;7.82;;
56130;SDS011;42000;44.774;20.506;2023-02-01T11:11:00;18.83;;;8.55;;
56130;SDS011;42000;44.774;20.506;2023-02-01T11:13:30;20.00;;;8.40;;
56130;SDS011;42000;44.774;20.506;2023-02-01T11:15:58;25.35;;;11.70;;
56130;SDS011;42000;44.774;20.506;2023-02-01T11:18:28;14.10;;;6.80;;
56130;SDS011;42000;44.774;20.506;2023-02-01T11:20:55;15.10;;;7.20;;
56130;SDS011;42000;44.774;20.506;2023-02-01T11:23:22;16.70;;;7.55;;
56130;SDS011;42000;44.774;20.506;2023-02-01T11:25:53;16.55;;;7.50;;
56130;SDS011;42000;44.774;20.506;2023-02-01T11:28:20;23.55;;;9.80;;
56130;SDS011;42000;44.774;20.506;2023-02-01T11:30:47;12.90;;;5.88;;
56130;SDS011;42000;44.774;20.506;2023-02-01T11:33:18;14.75;;;8.23;;
56130;SDS011;42000;44.774;20.506;2023-02-01T11:35:45;11.80;;;5.90;;
56130;SDS011;42000;44.774;20.506;2023-02-01T11:40:45;13.30;;;6.90;;
56130;SDS011;42000;44.774;20.506;2023-02-01T11:43:25;22.50;;;8.95;;
56130;SDS011;42000;44.774;20.506;2023-02-01T11:45:56;14.70;;;5.55;;
56130;SDS011;42000;44.774;20.506;2023-02-01T11:48:23;13.15;;;5.95;;
56130;SDS011;42000;44.774;20.506;2023-02-01T11:55:53;10.40;;;5.85;;
56130;SDS011;42000;44.774;20.506;2023-02-01T12:01:09;10.02;;;5.30;;
56130;SDS011;42000;44.774;20.506;2023-02-01T12:16:48;9.95;;;4.47;;
56130;SDS011;42000;44.774;20.506;2023-02-01T12:24:51;14.52;;;5.93;;
56130;SDS011;42000;44.774;20.506;2023-02-01T12:37:36;13.50;;;5.15;;
56130;SDS011;42000;44.774;20.506;2023-02-01T12:42:40;12.32;;;5.15;;
56130;SDS011;42000;44.774;20.506;2023-02-01T12:47:38;12.65;;;4.90;;
56130;SDS011;42000;44.774;20.506;2023-02-01T12:50:18;12.48;;;4.97;;
56130;SDS011;42000;44.774;20.506;2023-02-01T12:52:48;14.60;;;4.63;;
56130;SDS011;42000;44.774;20.506;2023-02-01T12:58:23;11.13;;;4.25;;
56130;SDS011;42000;44.774;20.506;2023-02-01T13:00:45;9.02;;;4.13;;
56130;SDS011;42000;44.774;20.506;2023-02-01T13:06:01;11.18;;;4.75;;
56130;SDS011;42000;44.774;20.506;2023-02-01T13:08:36;9.32;;;5.13;;
56130;SDS011;42000;44.774;20.506;2023-02-01T13:11:05;10.90;;;4.80;;
56130;SDS011;42000;44.774;20.506;2023-02-01T13:16:20;8.23;;;3.63;;
56130;SDS011;42000;44.774;20.506;2023-02-01T13:18:52;8.65;;;4.00;;
56130;SDS011;42000;44.774;20.506;2023-02-01T13:21:24;7.47;;;3.38;;
56130;SDS011;42000;44.774;20.506;2023-02-01T13:23:51;6.50;;;2.42;;
56130;SDS011;42000;44.774;20.506;2023-02-01T13:26:18;12.95;;;3.72;;
56130;SDS011;42000;44.774;20.506;2023-02-01T13:28:45;7.43;;;3.90;;
56130;SDS011;42000;44.774;20.506;2023-02-01T13:38:44;8.80;;;4.30;;
56130;SDS011;42000;44.774;20.506;2023-02-01T13:43:49;11.98;;;4.82;;
56130;SDS011;42000;44.774;20.506;2023-02-01T13:46:16;9.23;;;4.05;;
56130;SDS011;42000;44.774;20.506;2023-02-01T13:51:11;9.70;;;3.50;;
56130;SDS011;42000;44.774;20.506;2023-02-01T13:53:38;7.30;;;3.33;;
56130;SDS011;42000;44.774;20.506;2023-02-01T13:58:40;6.13;;;3.28;;
56130;SDS011;42000;44.774;20.506;2023-02-01T14:03:52;7.03;;;4.15;;
56130;SDS011;42000;44.774;20.506;2023-02-01T14:06:35;11.57;;;4.60;;
56130;SDS011;42000;44.774;20.506;2023-02-01T14:09:19;39.92;;;14.82;;
56130;SDS011;42000;44.774;20.506;2023-02-01T14:16:40;31.42;;;12.60;;
56130;SDS011;42000;44.774;20.506;2023-02-01T14:19:23;13.63;;;5.28;;
56130;SDS011;42000;44.774;20.506;2023-02-01T14:21:53;16.10;;;6.65;;
56130;SDS011;42000;44.774;20.506;2023-02-01T14:24:27;18.10;;;4.72;;
56130;SDS011;42000;44.774;20.506;2023-02-01T14:26:54;12.15;;;4.30;;
56130;SDS011;42000;44.774;20.506;2023-02-01T14:40:05;39.25;;;10.85;;
56130;SDS011;42000;44.774;20.506;2023-02-01T14:42:53;29.60;;;8.57;;
56130;SDS011;42000;44.774;20.506;2023-02-01T14:55:44;64.07;;;23.45;;
56130;SDS011;42000;44.774;20.506;2023-02-01T15:00:56;39.50;;;13.25;;
56130;SDS011;42000;44.774;20.506;2023-02-01T15:05:54;35.88;;;16.52;;
56130;SDS011;42000;44.774;20.506;2023-02-01T15:08:23;36.78;;;14.77;;
56130;SDS011;42000;44.774;20.506;2023-02-01T15:10:50;28.20;;;12.00;;
56130;SDS011;42000;44.774;20.506;2023-02-01T15:13:22;28.98;;;11.98;;
56130;SDS011;42000;44.774;20.506;2023-02-01T15:16:01;34.00;;;12.80;;
56130;SDS011;42000;44.774;20.506;2023-02-01T15:18:28;28.25;;;12.05;;
56130;SDS011;42000;44.774;20.506;2023-02-01T15:21:01;35.25;;;13.32;;
56130;SDS011;42000;44.774;20.506;2023-02-01T15:23:27;37.35;;;13.25;;
56130;SDS011;42000;44.774;20.506;2023-02-01T15:25:53;32.08;;;13.70;;
56130;SDS011;42000;44.774;20.506;2023-02-01T15:28:20;36.47;;;15.90;;
56130;SDS011;42000;44.774;20.506;2023-02-01T15:30:53;36.95;;;16.05;;
56130;SDS011;42000;44.774;20.506;2023-02-01T15:33:20;38.65;;;17.02;;
56130;SDS011;42000;44.774;20.506;2023-02-01T15:35:47;34.05;;;15.15;;
56130;SDS011;42000;44.774;20.506;2023-02-01T15:40:59;40.38;;;15.43;;
56130;SDS011;42000;44.774;20.506;2023-02-01T15:43:26;36.25;;;15.35;;
56130;SDS011;42000;44.774;20.506;2023-02-01T15:45:59;39.60;;;15.95;;
56130;SDS011;42000;44.774;20.506;2023-02-01T15:48:27;39.08;;;16.80;;
56130;SDS011;42000;44.774;20.506;2023-02-01T15:50:55;38.28;;;16.27;;
56130;SDS011;42000;44.774;20.506;2023-02-01T15:53:23;38.15;;;15.00;;
56130;SDS011;42000;44.774;20.506;2023-02-01T15:55:54;41.13;;;15.93;;
56130;SDS011;42000;44.774;20.506;2023-02-01T15:58:21;39.08;;;16.05;;
56130;SDS011;42000;44.774;20.506;2023-02-01T16:00:52;41.63;;;18.73;;
56130;SDS011;42000;44.774;20.506;2023-02-01T16:06:01;53.67;;;25.55;;
56130;SDS011;42000;44.774;20.506;2023-02-01T16:08:28;60.70;;;27.23;;
56130;SDS011;42000;44.774;20.506;2023-02-01T16:11:20;64.03;;;28.98;;
56130;SDS011;42000;44.774;20.506;2023-02-01T16:13:40;70.95;;;33.53;;
56130;SDS011;42000;44.774;20.506;2023-02-01T16:16:07;76.10;;;32.50;;
56130;SDS011;42000;44.774;20.506;2023-02-01T16:18:38;78.00;;;35.78;;
56130;SDS011;42000;44.774;20.506;2023-02-01T16:21:04;93.80;;;42.53;;
56130;SDS011;42000;44.774;20.506;2023-02-01T16:23:32;98.85;;;46.50;;
56130;SDS011;42000;44.774;20.506;2023-02-01T16:25:58;95.53;;;46.75;;
56130;SDS011;42000;44.774;20.506;2023-02-01T16:28:24;93.70;;;44.15;;
56130;SDS011;42000;44.774;20.506;2023-02-01T16:30:51;88.97;;;42.05;;
56130;SDS011;42000;44.774;20.506;2023-02-01T16:33:18;81.85;;;40.22;;
56130;SDS011;42000;44.774;20.506;2023-02-01T16:35:46;86.55;;;40.00;;
56130;SDS011;42000;44.774;20.506;2023-02-01T16:38:13;88.90;;;42.85;;
56130;SDS011;42000;44.774;20.506;2023-02-01T16:40:40;93.60;;;45.10;;
56130;SDS011;42000;44.774;20.506;2023-02-01T16:43:23;92.13;;;43.83;;
56130;SDS011;42000;44.774;20.506;2023-02-01T16:45:50;78.53;;;37.72;;
56130;SDS011;42000;44.774;20.506;2023-02-01T16:48:23;102.82;;;47.92;;
56130;SDS011;42000;44.774;20.506;2023-02-01T16:50:51;94.13;;;44.25;;
56130;SDS011;42000;44.774;20.506;2023-02-01T16:53:19;92.45;;;43.63;;
56130;SDS011;42000;44.774;20.506;2023-02-01T16:55:45;93.65;;;41.92;;
56130;SDS011;42000;44.774;20.506;2023-02-01T16:58:12;76.18;;;36.22;;
56130;SDS011;42000;44.774;20.506;2023-02-01T17:00:39;81.03;;;39.15;;
56130;SDS011;42000;44.774;20.506;2023-02-01T17:03:05;79.43;;;36.67;;
56130;SDS011;42000;44.774;20.506;2023-02-01T17:05:31;83.35;;;38.55;;
56130;SDS011;42000;44.774;20.506;2023-02-01T17:07:58;89.82;;;42.95;;
56130;SDS011;42000;44.774;20.506;2023-02-01T17:10:28;82.47;;;38.30;;